Time;durP1;ratioP1;P1;durP2;ratioP2;P2;SDS_P1;SDS_P2;PMS_P1;PMS_P2;Temp;Humidity;BMP_temperature;BMP_pressure;BME280_temperature;BME280_humidity;BME280_pressure;Samples;Min_cycle;Max_cycle;Signal;HPM_P1;HPM_P2
2023/01/16 00:00:29;;;;;;;35.42;15.90;;;;;;;3.52;88.05;96489.53;5050710;28;20053;-63
2023/01/16 00:02:56;;;;;;;42.88;17.42;;;;;;;3.49;88.13;96494.78;5050789;28;20489;-63
2023/01/16 00:05:28;;;;;;;43.10;17.80;;;;;;;3.47;88.53;96484.44;5050697;28;20068;-63
2023/01/16 00:07:55;;;;;;;31.15;15.02;;;;;;;3.48;88.00;96487.88;5050598;28;20137;-62
2023/01/16 00:10:22;;;;;;;28.65;14.75;;;;;;;3.48;88.11;96490.47;5050335;28;20056;-63
2023/01/16 00:12:49;;;;;;;42.33;19.70;;;;;;;3.44;88.53;96492.22;5050381;28;20040;-64
2023/01/16 00:15:17;;;;;;;38.35;19.15;;;;;;;3.47;88.60;96496.50;5050411;28;20063;-66
2023/01/16 00:17:47;;;;;;;43.28;16.13;;;;;;;3.47;88.35;96486.16;5050444;28;20084;-63
2023/01/16 00:20:15;;;;;;;25.90;14.02;;;;;;;3.43;88.58;96480.16;5050492;28;20056;-62
2023/01/16 00:22:42;;;;;;;30.70;14.35;;;;;;;3.44;88.27;96484.47;5050466;28;20053;-63
2023/01/16 00:25:12;;;;;;;25.90;14.45;;;;;;;3.44;88.42;96481.88;5050133;28;20057;-62
2023/01/16 00:27:40;;;;;;;24.17;12.10;;;;;;;3.46;88.69;96482.72;5049862;28;20079;-63
2023/01/16 00:30:09;;;;;;;31.75;14.73;;;;;;;3.47;88.57;96473.22;5050177;28;20131;-64
2023/01/16 00:32:36;;;;;;;35.70;16.30;;;;;;;3.48;88.22;96478.38;5050145;28;20084;-66
2023/01/16 00:35:06;;;;;;;29.08;14.57;;;;;;;3.47;88.25;96471.50;5050205;28;20053;-64
2023/01/16 00:37:33;;;;;;;34.55;16.58;;;;;;;3.50;88.03;96465.44;5050154;28;20073;-65
2023/01/16 00:40:01;;;;;;;30.23;15.93;;;;;;;3.53;87.93;96458.50;5050087;28;20056;-63
2023/01/16 00:42:28;;;;;;;32.67;17.63;;;;;;;3.47;87.74;96460.31;5050006;28;20490;-66
2023/01/16 00:44:55;;;;;;;33.10;17.95;;;;;;;3.34;88.11;96464.75;5049872;28;20045;-62
2023/01/16 00:47:22;;;;;;;35.17;18.23;;;;;;;3.25;88.09;96458.78;5050286;28;20049;-63
2023/01/16 00:49:57;;;;;;;33.63;17.77;;;;;;;3.22;88.45;96457.97;5049955;28;20137;-65
2023/01/16 00:52:26;;;;;;;37.00;17.38;;;;;;;3.22;88.02;96464.00;5049985;28;20056;-65
2023/01/16 00:54:56;;;;;;;33.25;16.85;;;;;;;3.25;87.77;96457.94;5049843;28;20050;-62
2023/01/16 00:57:23;;;;;;;33.05;16.40;;;;;;;3.29;87.04;96457.03;5049804;28;20056;-65
2023/01/16 00:59:52;;;;;;;28.27;15.27;;;;;;;3.25;86.83;96455.38;5050036;28;20072;-65
2023/01/16 01:02:21;;;;;;;20.58;12.10;;;;;;;3.15;86.16;96447.69;5049769;28;20053;-61
2023/01/16 01:04:48;;;;;;;33.53;16.25;;;;;;;3.11;85.79;96452.91;5049853;28;20052;-64
2023/01/16 01:07:17;;;;;;;28.65;15.18;;;;;;;3.01;85.01;96444.41;5049722;28;20131;-63
2023/01/16 01:09:45;;;;;;;31.55;15.27;;;;;;;2.84;84.96;96447.13;5049601;28;20049;-63
2023/01/16 01:12:13;;;;;;;29.17;15.05;;;;;;;2.75;84.50;96451.50;5049724;28;20053;-66
2023/01/16 01:14:40;;;;;;;27.40;14.15;;;;;;;2.64;84.43;96445.56;5049982;28;20147;-65
2023/01/16 01:17:09;;;;;;;23.58;11.98;;;;;;;2.52;84.10;96447.38;5049581;28;20045;-63
2023/01/16 01:19:36;;;;;;;18.98;11.05;;;;;;;2.42;83.22;96447.44;5049570;28;20132;-64
2023/01/16 01:22:04;;;;;;;19.95;11.50;;;;;;;2.34;83.34;96438.03;5049675;28;20049;-64
2023/01/16 01:24:32;;;;;;;14.82;9.98;;;;;;;2.24;83.06;96441.53;5050059;28;20085;-62
2023/01/16 01:27:01;;;;;;;15.18;9.45;;;;;;;2.12;82.95;96440.75;5049933;27;20053;-65
2023/01/16 01:29:28;;;;;;;16.02;9.65;;;;;;;1.95;82.94;96440.84;5049704;28;20203;-62
2023/01/16 01:31:56;;;;;;;14.70;8.88;;;;;;;1.87;83.37;96435.72;5049437;28;20074;-65
2023/01/16 01:34:24;;;;;;;28.48;9.52;;;;;;;1.81;83.07;96430.63;5049417;28;20075;-65
2023/01/16 01:36:51;;;;;;;13.93;8.30;;;;;;;1.70;83.25;96422.06;5049530;28;20049;-64
2023/01/16 01:39:19;;;;;;;9.93;7.10;;;;;;;1.56;83.98;96416.97;5051841;28;20045;-64
2023/01/16 01:41:46;;;;;;;12.95;8.50;;;;;;;1.53;83.68;96411.81;5052940;28;20057;-63
2023/01/16 01:44:52;;;;;;;11.45;7.57;;;;;;;1.45;83.93;96411.84;5052511;28;20057;-65
2023/01/16 01:47:22;;;;;;;11.60;7.88;;;;;;;1.32;84.01;96411.88;5052696;28;20041;-65
2023/01/16 01:49:51;;;;;;;13.15;8.68;;;;;;;1.29;83.94;96411.06;5052651;28;20053;-64
2023/01/16 01:52:21;;;;;;;11.20;7.13;;;;;;;1.22;83.88;96405.91;5052659;27;20041;-63
2023/01/16 01:54:56;;;;;;;14.77;7.97;;;;;;;1.15;83.55;96399.06;5052800;28;20049;-64
2023/01/16 01:57:28;;;;;;;13.30;8.50;;;;;;;1.14;83.50;96394.75;5052822;28;20617;-63
2023/01/16 02:00:02;;;;;;;12.07;8.05;;;;;;;1.07;83.16;96396.50;5052637;28;20478;-66
2023/01/16 02:02:34;;;;;;;14.00;7.63;;;;;;;0.96;84.08;96396.50;5052498;28;20153;-66
2023/01/16 02:05:05;;;;;;;12.18;7.85;;;;;;;0.96;84.62;96398.25;5052411;28;20055;-63
2023/01/16 02:07:33;;;;;;;13.63;8.68;;;;;;;0.94;84.66;96392.25;5052452;28;20120;-65
2023/01/16 02:10:11;;;;;;;13.70;7.97;;;;;;;0.95;85.27;96397.38;5052405;28;20049;-65
2023/01/16 02:12:38;;;;;;;12.80;8.60;;;;;;;1.03;85.23;96393.94;5052421;28;20162;-65
2023/01/16 02:15:07;;;;;;;11.07;7.78;;;;;;;1.06;85.20;96388.78;5052336;28;20459;-65
2023/01/16 02:20:23;;;;;;;14.00;7.10;;;;;;;1.08;85.73;96376.75;5052524;28;20418;-66
2023/01/16 02:23:21;;;;;;;11.07;7.88;;;;;;;1.13;86.18;96383.59;5052256;28;20088;-61
2023/01/16 02:26:31;;;;;;;14.18;8.02;;;;;;;1.16;86.23;96374.13;5052009;28;20106;-63
2023/01/16 02:29:18;;;;;;;13.48;6.80;;;;;;;1.17;86.23;96374.13;5052118;28;20053;-65
2023/01/16 02:31:54;;;;;;;10.88;7.82;;;;;;;1.15;86.55;96378.44;5052015;28;20052;-63
2023/01/16 02:34:42;;;;;;;11.23;7.38;;;;;;;1.16;86.98;96379.28;5051966;28;20439;-64
2023/01/16 02:37:18;;;;;;;11.65;7.18;;;;;;;1.16;87.53;96375.00;5051943;28;20066;-65
2023/01/16 02:39:53;;;;;;;11.88;7.63;;;;;;;1.26;87.46;96381.84;5052036;28;20059;-62
2023/01/16 02:42:31;;;;;;;12.65;7.85;;;;;;;1.35;87.71;96378.38;5052128;28;20380;-65
2023/01/16 02:45:10;;;;;;;10.70;7.10;;;;;;;1.33;87.58;96376.66;5051729;28;20045;-66
2023/01/16 02:47:47;;;;;;;12.80;7.20;;;;;;;1.33;87.87;96379.25;5051715;28;20049;-62
2023/01/16 02:50:22;;;;;;;14.18;8.18;;;;;;;1.36;88.14;96382.66;5051217;28;20081;-64
2023/01/16 02:53:00;;;;;;;13.02;8.02;;;;;;;1.35;88.62;96380.06;5051728;28;20045;-65
2023/01/16 02:55:38;;;;;;;16.00;10.80;;;;;;;1.39;89.06;96384.38;5051618;28;20132;-62
2023/01/16 02:58:12;;;;;;;11.55;7.90;;;;;;;1.36;89.46;96379.22;5051946;28;20132;-64
2023/01/16 03:00:50;;;;;;;15.02;8.50;;;;;;;1.37;89.31;96386.97;5051702;28;20049;-66
2023/01/16 03:03:51;;;;;;;11.15;8.02;;;;;;;1.45;89.33;96386.94;5051505;28;20045;-65
2023/01/16 03:06:43;;;;;;;12.75;8.57;;;;;;;1.53;89.43;96388.63;5051533;28;20105;-64
2023/01/16 03:09:29;;;;;;;12.43;8.02;;;;;;;1.59;89.18;96383.41;5051334;28;20041;-66
2023/01/16 03:12:08;;;;;;;12.90;8.90;;;;;;;1.62;89.22;96380.81;5051463;28;20132;-65
2023/01/16 03:14:47;;;;;;;13.82;9.05;;;;;;;1.63;89.30;96385.13;5051256;28;20122;-66
2023/01/16 03:17:27;;;;;;;13.52;8.15;;;;;;;1.58;89.34;96385.16;5051012;28;20052;-64
2023/01/16 03:20:14;;;;;;;13.15;8.30;;;;;;;1.58;89.29;96386.84;5051346;28;20051;-63
2023/01/16 03:22:51;;;;;;;12.50;8.10;;;;;;;1.59;89.54;96380.81;5051178;28;20049;-62
2023/01/16 03:25:29;;;;;;;13.95;8.55;;;;;;;1.63;89.32;96382.56;5051186;28;20479;-65
2023/01/16 03:28:08;;;;;;;16.33;9.95;;;;;;;1.67;89.52;96373.94;5051213;28;20511;-65
2023/01/16 03:30:48;;;;;;;21.50;9.25;;;;;;;1.73;89.44;96373.91;5051163;28;20053;-64
2023/01/16 03:33:29;;;;;;;17.85;9.30;;;;;;;1.75;88.99;96364.41;5051042;28;20094;-64
2023/01/16 03:36:11;;;;;;;20.23;11.25;;;;;;;1.76;89.11;96360.13;5051056;28;20053;-64
2023/01/16 03:38:46;;;;;;;16.02;9.05;;;;;;;1.80;89.19;96369.53;5051143;28;20137;-66
2023/01/16 03:41:20;;;;;;;21.00;11.80;;;;;;;1.81;89.58;96367.84;5051294;28;20045;-66
2023/01/16 03:43:54;;;;;;;21.95;10.15;;;;;;;1.83;89.90;96363.50;5050810;28;20426;-64
2023/01/16 03:46:32;;;;;;;15.10;9.40;;;;;;;1.85;89.71;96364.34;5050977;28;20057;-66
2023/01/16 03:49:06;;;;;;;14.63;10.07;;;;;;;1.85;89.83;96356.63;5051009;27;20505;-65
2023/01/16 03:51:45;;;;;;;14.50;9.10;;;;;;;1.91;89.65;96361.75;5050754;28;20515;-64
2023/01/16 03:54:32;;;;;;;15.30;9.85;;;;;;;1.92;89.78;96362.63;5050692;28;20080;-66
2023/01/16 03:57:11;;;;;;;17.42;10.45;;;;;;;1.96;89.89;96359.16;5050695;28;20088;-62
2023/01/16 03:59:43;;;;;;;46.53;10.48;;;;;;;1.99;89.79;96352.22;5050876;28;20049;-65
2023/01/16 04:02:18;;;;;;;24.23;9.23;;;;;;;1.99;89.79;96351.38;5049763;28;20444;-66
2023/01/16 04:04:51;;;;;;;13.77;8.73;;;;;;;2.05;89.47;96351.34;5050565;28;20398;-62
2023/01/16 04:07:32;;;;;;;16.48;9.88;;;;;;;2.09;89.63;96347.88;5050592;28;20052;-64
2023/01/16 04:10:13;;;;;;;22.05;10.30;;;;;;;2.13;89.72;96339.22;5050487;28;20053;-63
2023/01/16 04:12:50;;;;;;;15.73;10.35;;;;;;;2.18;89.70;96349.53;5050461;28;20092;-66
2023/01/16 04:15:26;;;;;;;19.15;11.80;;;;;;;2.22;89.82;96340.00;5050485;28;20101;-64
2023/01/16 04:17:56;;;;;;;20.08;11.73;;;;;;;2.24;89.70;96346.03;5050687;28;20057;-63
2023/01/16 04:20:24;;;;;;;17.38;10.43;;;;;;;2.29;90.25;96344.28;5050551;28;20049;-65
2023/01/16 04:22:55;;;;;;;40.95;26.25;;;;;;;2.33;90.14;96347.69;5050343;28;20052;-62
2023/01/16 04:25:22;;;;;;;23.23;12.85;;;;;;;2.23;90.28;96334.00;5050367;28;20448;-64
2023/01/16 04:27:50;;;;;;;21.90;13.18;;;;;;;2.30;90.36;96325.34;5050223;28;20056;-63
2023/01/16 04:30:17;;;;;;;19.75;13.05;;;;;;;2.25;90.80;96317.63;5050217;28;20056;-64
2023/01/16 04:32:45;;;;;;;23.63;14.10;;;;;;;2.12;91.30;96313.44;5050202;28;20067;-62
2023/01/16 04:35:16;;;;;;;22.77;13.88;;;;;;;2.16;91.96;96309.94;5050302;28;20399;-63
2023/01/16 04:37:46;;;;;;;20.38;13.38;;;;;;;2.10;91.85;96303.13;5050172;28;20053;-65
2023/01/16 04:40:17;;;;;;;24.40;14.00;;;;;;;2.09;92.03;96296.25;5050049;28;20055;-64
2023/01/16 04:42:46;;;;;;;22.67;12.88;;;;;;;2.11;92.17;96299.66;5049985;28;20310;-63
2023/01/16 04:45:16;;;;;;;21.42;13.90;;;;;;;2.16;91.96;96289.31;5049551;28;20139;-65
2023/01/16 04:47:51;;;;;;;22.40;13.93;;;;;;;2.22;91.33;96288.38;5049927;28;20147;-65
2023/01/16 04:50:21;;;;;;;24.75;14.65;;;;;;;2.20;91.04;96283.22;5050180;28;20114;-64
2023/01/16 04:52:50;;;;;;;24.05;14.80;;;;;;;2.17;90.70;96287.59;5049986;28;20057;-66
2023/01/16 04:55:20;;;;;;;20.63;13.95;;;;;;;2.17;90.33;96292.75;5049899;28;20132;-61
2023/01/16 04:57:54;;;;;;;19.85;13.55;;;;;;;2.16;89.37;96301.38;5049858;28;20048;-63
2023/01/16 05:00:22;;;;;;;17.08;11.55;;;;;;;2.08;89.01;96301.44;5049908;28;20049;-64
2023/01/16 05:02:57;;;;;;;19.25;10.63;;;;;;;1.98;89.12;96298.03;5050153;28;20041;-65
2023/01/16 05:05:26;;;;;;;17.98;11.43;;;;;;;1.96;89.33;96300.63;5049808;28;20049;-64
2023/01/16 05:10:45;;;;;;;18.90;12.23;;;;;;;2.01;88.84;96298.88;5049530;28;20135;-66
2023/01/16 05:13:12;;;;;;;18.73;11.85;;;;;;;1.97;89.15;96296.34;5052120;28;20136;-62
2023/01/16 05:15:39;;;;;;;17.90;11.50;;;;;;;1.95;89.24;96291.19;5053211;28;20105;-67
2023/01/16 05:18:07;;;;;;;19.95;12.25;;;;;;;1.98;89.22;96292.88;5053154;28;20052;-64
2023/01/16 05:20:44;;;;;;;18.63;11.48;;;;;;;2.01;89.51;96282.53;5052986;28;20049;-65
2023/01/16 05:23:11;;;;;;;17.65;11.68;;;;;;;2.07;89.37;96279.91;5052304;28;20127;-65
2023/01/16 05:25:39;;;;;;;16.75;11.32;;;;;;;2.10;89.17;96282.47;5053138;28;20045;-63
2023/01/16 05:28:08;;;;;;;16.38;11.00;;;;;;;2.11;88.89;96273.00;5052998;28;20545;-64
2023/01/16 05:30:36;;;;;;;15.27;10.00;;;;;;;2.12;88.54;96278.16;5052867;28;20048;-62
2023/01/16 05:33:06;;;;;;;17.38;10.95;;;;;;;2.12;88.50;96272.13;5052960;28;20051;-64
2023/01/16 05:35:34;;;;;;;24.38;11.13;;;;;;;2.12;88.24;96269.56;5053074;28;20478;-64
2023/01/16 05:38:02;;;;;;;17.92;10.43;;;;;;;2.13;88.28;96266.97;5052918;28;20045;-63
2023/01/16 05:40:33;;;;;;;17.83;10.55;;;;;;;2.14;88.09;96270.41;5052922;28;20091;-62
2023/01/16 05:43:00;;;;;;;14.95;10.10;;;;;;;2.15;87.92;96266.94;5052789;28;20060;-63
2023/01/16 05:45:29;;;;;;;16.40;9.85;;;;;;;2.17;88.18;96256.63;5052681;28;20049;-64
2023/01/16 05:48:00;;;;;;;15.95;9.38;;;;;;;2.18;88.02;96263.47;5052794;28;20052;-62
2023/01/16 05:50:31;;;;;;;16.70;11.10;;;;;;;2.21;88.24;96263.44;5052743;28;20399;-63
2023/01/16 05:53:03;;;;;;;17.58;10.93;;;;;;;2.22;88.54;96263.44;5052735;28;20071;-66
2023/01/16 05:55:35;;;;;;;20.08;10.35;;;;;;;2.23;88.45;96256.56;5052751;28;20138;-66
2023/01/16 05:58:03;;;;;;;15.23;10.73;;;;;;;2.25;87.98;96255.66;5052701;28;20049;-64
2023/01/16 06:00:31;;;;;;;14.13;9.18;;;;;;;2.26;88.08;96256.53;5052580;28;20121;-65
2023/01/16 06:02:58;;;;;;;15.00;10.13;;;;;;;2.27;88.32;96260.81;5052639;28;20056;-62
2023/01/16 06:05:26;;;;;;;16.25;9.18;;;;;;;2.30;87.98;96254.75;5052635;28;20045;-65
2023/01/16 06:07:56;;;;;;;13.15;9.00;;;;;;;2.33;88.31;96267.66;5052361;28;20056;-64
2023/01/16 06:10:29;;;;;;;13.88;10.75;;;;;;;2.32;88.18;96278.84;5052393;28;20132;-63
2023/01/16 06:12:58;;;;;;;12.93;9.20;;;;;;;2.35;88.45;96273.66;5052629;28;20049;-67
2023/01/16 06:15:26;;;;;;;14.50;9.00;;;;;;;2.39;88.59;96277.91;5052433;28;20053;-64
2023/01/16 06:17:58;;;;;;;16.20;10.98;;;;;;;2.43;88.77;96283.88;5052242;28;20072;-62
2023/01/16 06:20:25;;;;;;;13.45;9.55;;;;;;;2.44;88.55;96280.47;5052193;28;20049;-64
2023/01/16 06:22:53;;;;;;;13.75;9.63;;;;;;;2.44;88.71;96283.03;5052103;28;20094;-63
2023/01/16 06:25:22;;;;;;;14.20;10.27;;;;;;;2.39;88.75;96280.50;5051576;28;20084;-66
2023/01/16 06:27:50;;;;;;;10.67;7.03;;;;;;;2.43;89.29;96286.47;5052306;28;20048;-66
2023/01/16 06:30:18;;;;;;;15.68;9.52;;;;;;;2.44;89.70;96290.78;5052120;28;20048;-66
2023/01/16 06:32:50;;;;;;;15.40;10.20;;;;;;;2.46;89.84;96289.91;5052067;28;20486;-64
2023/01/16 06:35:18;;;;;;;19.08;11.35;;;;;;;2.44;90.04;96283.03;5052006;28;20045;-63
2023/01/16 06:37:46;;;;;;;21.58;11.05;;;;;;;2.50;90.72;96281.25;5051895;28;20057;-66
2023/01/16 06:40:13;;;;;;;14.88;10.63;;;;;;;2.61;91.01;96275.97;5051900;28;20140;-64
2023/01/16 06:42:40;;;;;;;16.48;11.57;;;;;;;2.70;90.76;96269.84;5051792;28;20057;-65
2023/01/16 06:45:08;;;;;;;17.15;11.27;;;;;;;2.73;91.04;96267.22;5051556;28;20391;-64
2023/01/16 06:47:35;;;;;;;24.63;16.95;;;;;;;2.77;90.87;96268.91;5051845;28;20128;-63
2023/01/16 06:50:02;;;;;;;21.70;14.25;;;;;;;2.77;90.94;96268.91;5051757;28;20049;-66
2023/01/16 06:52:31;;;;;;;13.68;10.88;;;;;;;2.82;91.61;96271.44;5051536;28;20057;-66
2023/01/16 06:54:58;;;;;;;19.38;11.73;;;;;;;2.87;91.31;96264.50;5051774;28;20045;-65
2023/01/16 06:57:25;;;;;;;17.17;12.20;;;;;;;2.91;91.72;96257.53;5051776;28;20090;-63
2023/01/16 06:59:52;;;;;;;18.50;12.52;;;;;;;2.95;91.36;96254.03;5051660;28;20049;-65
2023/01/16 07:02:19;;;;;;;15.88;12.07;;;;;;;3.01;91.25;96245.38;5051583;28;20090;-65
2023/01/16 07:04:46;;;;;;;19.58;13.05;;;;;;;3.08;90.92;96247.00;5051619;28;20041;-62
2023/01/16 07:07:15;;;;;;;21.52;12.38;;;;;;;3.15;90.37;96252.94;5051513;28;20440;-66
2023/01/16 07:09:44;;;;;;;21.10;14.55;;;;;;;3.22;90.20;96258.91;5051514;28;20048;-64
2023/01/16 07:12:11;;;;;;;23.40;15.07;;;;;;;3.27;89.78;96252.78;5051380;28;20391;-64
2023/01/16 07:22:54;;;;;;;22.13;15.18;;;;;;;3.45;90.00;96248.22;5051506;28;20060;-66
2023/01/16 07:25:31;;;;;;;20.75;13.55;;;;;;;3.51;90.11;96245.56;5051320;28;20432;-64
2023/01/16 07:27:58;;;;;;;20.80;13.40;;;;;;;3.64;90.20;96247.94;5051377;28;20136;-63
2023/01/16 07:30:25;;;;;;;16.75;12.70;;;;;;;3.72;90.00;96245.25;5051208;28;20121;-66
2023/01/16 07:32:53;;;;;;;19.23;13.82;;;;;;;3.81;89.27;96242.53;5051457;28;20097;-65
2023/01/16 07:35:20;;;;;;;17.85;12.95;;;;;;;3.91;89.12;96236.31;5050258;28;20376;-63
2023/01/16 07:37:47;;;;;;;15.88;11.70;;;;;;;3.99;87.96;96240.50;5050926;28;20172;-63
2023/01/16 07:40:15;;;;;;;16.70;11.90;;;;;;;4.06;86.91;96231.75;5051171;28;20422;-65
2023/01/16 07:42:43;;;;;;;13.65;10.07;;;;;;;4.13;85.13;96220.41;5050971;28;20049;-65
2023/01/16 07:45:11;;;;;;;14.38;10.23;;;;;;;4.17;84.97;96224.69;5050617;28;20064;-63
2023/01/16 07:47:38;;;;;;;14.98;10.18;;;;;;;4.26;85.29;96221.06;5051020;28;20459;-63
2023/01/16 07:50:06;;;;;;;14.02;9.65;;;;;;;4.39;85.41;96218.25;5050924;28;20529;-66
2023/01/16 07:52:33;;;;;;;10.23;8.40;;;;;;;4.79;85.24;96209.69;5050818;28;20049;-64
2023/01/16 07:55:00;;;;;;;10.88;8.55;;;;;;;4.99;81.54;96202.38;5050781;28;20080;-67
2023/01/16 07:57:27;;;;;;;9.65;8.23;;;;;;;5.28;80.21;96195.72;5050828;28;20553;-65
2023/01/16 07:59:56;;;;;;;9.55;7.05;;;;;;;5.79;76.91;96181.59;5050665;28;20517;-64
2023/01/16 08:02:23;;;;;;;8.65;6.00;;;;;;;6.83;72.81;96178.00;5050617;28;20044;-66
2023/01/16 08:04:50;;;;;;;8.65;6.20;;;;;;;7.88;68.25;96181.75;5050648;28;21266;-65
2023/01/16 08:07:18;;;;;;;8.75;6.40;;;;;;;8.24;67.45;96173.63;5050632;28;20041;-65
2023/01/16 08:09:45;;;;;;;6.93;5.80;;;;;;;8.40;66.10;96178.31;5050592;28;20053;-64
2023/01/16 08:12:12;;;;;;;7.18;6.03;;;;;;;8.78;65.64;96183.06;5050600;28;20415;-64
2023/01/16 08:14:40;;;;;;;15.35;7.63;;;;;;;8.78;66.66;96181.31;5050353;28;20080;-66
2023/01/16 08:17:09;;;;;;;9.98;7.57;;;;;;;8.71;66.83;96185.06;5050405;28;20128;-65
2023/01/16 08:19:36;;;;;;;8.68;7.78;;;;;;;8.05;67.28;96176.88;5050450;28;20109;-66
2023/01/16 08:22:03;;;;;;;8.52;7.03;;;;;;;7.63;69.01;96169.56;5050520;28;20052;-66
2023/01/16 08:24:30;;;;;;;11.60;8.88;;;;;;;7.40;70.35;96171.13;5050563;28;20501;-66
2023/01/16 08:26:58;;;;;;;12.10;8.18;;;;;;;7.06;71.13;96171.28;5050430;28;20101;-63
2023/01/16 08:29:26;;;;;;;12.45;9.57;;;;;;;6.74;72.42;96182.63;5050208;28;20118;-63
2023/01/16 08:31:53;;;;;;;14.23;9.35;;;;;;;6.54;73.58;96173.63;5050143;28;20413;-66
2023/01/16 08:34:22;;;;;;;13.13;9.88;;;;;;;6.32;75.21;96174.19;5050206;28;20498;-66
2023/01/16 08:36:51;;;;;;;14.43;10.50;;;;;;;6.08;75.77;96166.16;5050149;28;20137;-64
2023/01/16 08:39:18;;;;;;;14.05;10.95;;;;;;;5.88;76.55;96156.25;5050234;28;20391;-62
2023/01/16 08:52:51;;;;;;;15.38;11.00;;;;;;;5.72;75.65;96158.41;5049947;28;20063;-64
2023/01/16 08:55:18;;;;;;;15.75;10.85;;;;;;;5.69;73.64;96167.13;5050025;28;20084;-66
2023/01/16 08:57:45;;;;;;;18.63;12.18;;;;;;;5.67;74.38;96167.16;5049910;28;20067;-64
2023/01/16 09:00:13;;;;;;;28.73;16.05;;;;;;;5.63;75.64;96164.66;5050017;28;20045;-64
2023/01/16 09:02:40;;;;;;;17.00;12.63;;;;;;;5.63;76.52;96165.50;5049868;28;20132;-63
2023/01/16 09:05:09;;;;;;;15.52;11.23;;;;;;;5.62;76.92;96160.34;5049973;28;20053;-66
2023/01/16 09:07:36;;;;;;;14.98;10.02;;;;;;;5.74;76.69;96162.66;5049959;28;20053;-62
2023/01/16 09:10:04;;;;;;;18.50;12.25;;;;;;;5.76;76.75;96165.22;5049839;28;20049;-65
2023/01/16 09:15:15;;;;;;;14.77;11.27;;;;;;;5.75;76.03;96164.34;5049879;28;20529;-64
2023/01/16 09:17:42;;;;;;;14.70;10.25;;;;;;;5.73;75.04;96160.09;5049756;28;20067;-65
2023/01/16 09:20:12;;;;;;;15.15;10.40;;;;;;;5.69;74.78;96159.34;5049602;28;20045;-65
2023/01/16 09:22:40;;;;;;;15.10;10.63;;;;;;;5.66;74.76;96162.00;5049607;28;20049;-63
2023/01/16 09:25:07;;;;;;;14.30;9.82;;;;;;;5.63;74.29;96144.75;5049692;28;20056;-64
2023/01/16 09:27:35;;;;;;;13.77;10.20;;;;;;;5.65;74.43;96150.75;5049775;28;20056;-64
2023/01/16 09:30:02;;;;;;;19.00;11.00;;;;;;;5.69;74.94;96148.97;5049534;28;20049;-66
2023/01/16 09:32:29;;;;;;;18.05;12.25;;;;;;;5.66;75.73;96136.88;5049438;28;20623;-63
2023/01/16 09:34:56;;;;;;;15.90;10.90;;;;;;;5.65;74.90;96135.19;5049529;28;20041;-66
2023/01/16 09:37:25;;;;;;;17.38;12.30;;;;;;;5.65;75.26;96119.63;5049457;28;20448;-64
2023/01/16 09:39:52;;;;;;;15.00;10.02;;;;;;;5.64;73.50;96111.88;5049371;28;20045;-65
2023/01/16 09:45:23;;;;;;;11.60;8.95;;;;;;;5.73;73.32;96119.44;5049254;28;20056;-65
2023/01/16 09:47:54;;;;;;;15.65;10.13;;;;;;;5.73;73.71;96106.47;5049506;28;20053;-64
2023/01/16 09:50:31;;;;;;;12.80;8.98;;;;;;;5.80;74.11;96099.34;5049314;28;20136;-66
2023/01/16 09:58:47;;;;;;;14.23;8.82;;;;;;;5.94;73.40;96088.63;5085358;28;20104;-65
2023/01/16 10:01:20;;;;;;;12.88;9.48;;;;;;;6.01;73.00;96081.50;5052768;28;20052;-63
2023/01/16 10:03:47;;;;;;;13.55;9.70;;;;;;;6.04;72.71;96073.66;5052762;28;20105;-63
2023/01/16 10:06:23;;;;;;;14.43;9.68;;;;;;;6.07;72.33;96081.38;5052445;28;20049;-65
2023/01/16 10:09:04;;;;;;;16.90;10.45;;;;;;;6.05;71.51;96078.81;5052328;28;20064;-64
2023/01/16 10:11:40;;;;;;;18.67;12.50;;;;;;;5.99;72.13;96075.50;5052351;28;20064;-66
2023/01/16 10:14:29;;;;;;;18.17;12.93;;;;;;;5.87;73.16;96068.91;5052475;28;20133;-65
2023/01/16 10:17:11;;;;;;;17.88;12.60;;;;;;;5.86;73.72;96062.84;5052301;28;20059;-64
2023/01/16 10:19:56;;;;;;;12.57;9.50;;;;;;;5.74;74.19;96056.25;5052291;28;20581;-65
2023/01/16 10:22:39;;;;;;;13.65;9.95;;;;;;;5.66;74.36;96048.66;5052266;28;20444;-66
2023/01/16 10:25:22;;;;;;;15.43;10.55;;;;;;;5.69;74.59;96043.38;5052196;28;20087;-63
2023/01/16 10:28:00;;;;;;;13.25;10.55;;;;;;;5.78;73.59;96049.22;5052195;28;20049;-63
2023/01/16 10:30:32;;;;;;;14.18;10.45;;;;;;;5.84;73.04;96040.44;5052160;28;20086;-65
2023/01/16 10:33:06;;;;;;;15.25;11.30;;;;;;;5.86;71.96;96042.06;5052045;28;20097;-66
2023/01/16 10:35:38;;;;;;;18.13;11.57;;;;;;;5.84;72.31;96041.25;5052107;28;20049;-64
2023/01/16 10:38:34;;;;;;;17.45;11.60;;;;;;;5.91;72.75;96036.75;5052079;28;20053;-66
2023/01/16 10:49:25;;;;;;;22.42;10.75;;;;;;;5.94;73.38;96036.69;5051941;28;20057;-62
2023/01/16 10:49:29;;;;;;;13.50;9.82;;;;;;;5.85;73.25;96013.56;5052061;28;20553;-62
2023/01/16 10:52:00;;;;;;;15.85;11.35;;;;;;;5.93;73.21;96001.25;5051717;28;20053;-64
2023/01/16 10:54:27;;;;;;;14.75;11.20;;;;;;;6.05;73.37;96006.09;5051772;28;20049;-66
2023/01/16 10:56:58;;;;;;;16.80;11.00;;;;;;;6.11;72.14;96001.63;5051701;28;20049;-66
2023/01/16 10:59:31;;;;;;;13.57;9.68;;;;;;;6.16;72.88;96002.34;5051595;28;20048;-63
2023/01/16 11:02:05;;;;;;;15.57;10.30;;;;;;;6.16;72.64;95998.00;5051867;27;20045;-65
2023/01/16 11:04:40;;;;;;;17.52;11.10;;;;;;;6.24;72.50;95999.53;5051509;28;20136;-63
2023/01/16 11:07:23;;;;;;;19.27;13.20;;;;;;;6.38;71.81;95986.97;5051510;28;20097;-66
2023/01/16 11:09:52;;;;;;;13.60;9.77;;;;;;;6.41;69.39;95984.28;5051204;28;20406;-64
2023/01/16 11:18:31;;;;;;;13.75;9.18;;;;;;;6.40;70.82;95971.34;5051658;28;20524;-64
2023/01/16 11:21:02;;;;;;;15.23;9.63;;;;;;;6.57;71.00;95963.03;5051519;28;20052;-63
2023/01/16 11:23:39;;;;;;;10.32;8.00;;;;;;;6.79;68.15;95962.34;5051310;28;20068;-63
2023/01/16 11:26:08;;;;;;;10.23;8.40;;;;;;;6.96;67.81;95969.59;5051205;28;20045;-64
2023/01/16 11:28:37;;;;;;;15.90;7.93;;;;;;;7.09;67.20;95970.03;5051282;28;20041;-64
2023/01/16 11:31:16;;;;;;;14.63;9.05;;;;;;;7.20;66.81;95957.50;5051215;28;20097;-63
2023/01/16 11:33:49;;;;;;;13.10;9.77;;;;;;;7.27;67.08;95958.16;5051092;28;20048;-65
2023/01/16 11:36:19;;;;;;;12.15;9.23;;;;;;;7.04;67.14;95954.59;5051161;28;20045;-64
2023/01/16 11:38:49;;;;;;;12.52;8.77;;;;;;;6.82;67.14;95959.66;5051395;28;20087;-66
2023/01/16 11:41:19;;;;;;;11.50;9.48;;;;;;;6.84;68.54;95950.06;5051061;28;20056;-64
2023/01/16 11:46:52;;;;;;;15.05;9.13;;;;;;;6.90;67.55;95933.41;5051357;28;20064;-64
2023/01/16 11:49:25;;;;;;;13.00;8.75;;;;;;;6.99;67.07;95937.44;5051002;28;20114;-63
2023/01/16 11:51:54;;;;;;;11.38;9.95;;;;;;;7.08;66.58;95935.38;5050828;28;20398;-63
2023/01/16 11:54:26;;;;;;;14.07;10.38;;;;;;;7.19;66.00;95935.00;5051201;28;20049;-64
2023/01/16 11:57:05;;;;;;;12.65;9.52;;;;;;;7.13;66.60;95932.63;5050948;28;20081;-64
2023/01/16 12:00:03;;;;;;;12.77;8.88;;;;;;;7.11;65.29;95931.84;5050803;28;20077;-64
2023/01/16 12:03:22;;;;;;;9.85;7.72;;;;;;;6.90;63.46;95936.00;5050716;28;20041;-66
2023/01/16 12:06:02;;;;;;;10.52;7.75;;;;;;;6.82;63.53;95925.84;5071619;28;20492;-66
2023/01/16 12:08:48;;;;;;;10.50;7.95;;;;;;;6.78;64.63;95922.50;5071496;28;20105;-63
2023/01/16 12:11:22;;;;;;;38.15;18.35;;;;;;;6.89;67.14;95916.94;5054954;28;20402;-64
2023/01/16 12:16:58;;;;;;;13.50;8.95;;;;;;;7.13;66.96;95905.78;5050824;28;20452;-66
2023/01/16 12:19:53;;;;;;;12.45;8.73;;;;;;;7.23;67.48;95906.31;5050435;28;20049;-66
2023/01/16 12:22:29;;;;;;;13.07;8.45;;;;;;;7.18;65.03;95891.69;5049956;28;20516;-64
2023/01/16 12:25:04;;;;;;;11.32;8.50;;;;;;;7.30;64.56;95899.97;5050439;28;20049;-62
2023/01/16 12:27:41;;;;;;;18.00;10.27;;;;;;;7.12;65.57;95899.72;5050436;28;20055;-67
2023/01/16 12:30:24;;;;;;;13.25;10.73;;;;;;;7.02;67.43;95898.34;5050465;28;20094;-67
2023/01/16 12:33:11;;;;;;;16.20;11.50;;;;;;;7.00;69.38;95900.13;5050464;28;20056;-65
2023/01/16 12:35:51;;;;;;;18.75;12.30;;;;;;;6.92;69.57;95896.03;5050266;28;20045;-67
2023/01/16 12:38:20;;;;;;;20.67;13.68;;;;;;;6.93;70.19;95887.31;5050414;28;20120;-67
2023/01/16 12:43:17;;;;;;;19.65;14.00;;;;;;;6.98;70.55;95886.34;5050231;28;20060;-63
2023/01/16 12:43:53;;;;;;;;;;;;;;;6.97;70.81;95895.88;5050494;28;20113;-64
2023/01/16 12:46:31;;;;;;;23.75;15.45;;;;;;;6.96;70.36;95891.59;5050023;28;19921;-65